KAGC/AGC METAR and TAF weather

Enter ICAO airport designator
Station Type Date Time Source
KAGC METAR 2019/12/11 16:53 UTC NOAA

KAGC 111653Z 24013G21KT 10SM SCT035 M03/M11 A3031 RMK AO2 SLP285 T10331111


Station Type Date Time Source
KAGC Decoded METAR 2019/12/11 16:53 UTC NOAA

PITTSBURGH ALLEGHENY CTY., PA, United States (KAGC) 40-21N 079-55W 389M
Dec 11, 2019 - 11:53 AM EST / 2019.12.11 1653 UTC
Wind: from the WSW (240 degrees) at 15 MPH (13 KT) gusting to 24 MPH (21 KT):0
Visibility: 10 mile(s):0
Sky conditions: partly cloudy
Temperature: 26.1 F (-3.3 C)
Windchill: 14 F (-10 C):1
Dew Point: 12.0 F (-11.1 C)
Relative Humidity: 54%
Pressure (altimeter): 30.31 in. Hg (1026 hPa)
ob: KAGC 111653Z 24013G21KT 10SM SCT035 M03/M11 A3031 RMK AO2 SLP285 T10331111
cycle: 17

Station Type Date Time Source
KAGC TAF 2019/12/11 18:39 UTC NOAA

TAF KAGC 111737Z 1118/1218 26012G25KT P6SM VCSH BKN035
FM120200 29010KT P6SM FEW035
FM120500 VRB04KT P6SM FEW250

Example: see airport list